createdAt,value
2023-03-28T00:01:52.082Z,59.99
2023-03-28T00:04:26.499Z,60.02
2023-03-28T00:07:00.051Z,60.00
2023-03-28T00:09:33.063Z,59.80
2023-03-28T00:12:06.653Z,59.87
2023-03-28T00:14:39.648Z,59.68
2023-03-28T00:19:54.538Z,59.47
2023-03-28T00:22:30.595Z,59.55
2023-03-28T00:25:03.816Z,59.69
2023-03-28T00:27:37.267Z,59.63
2023-03-28T00:30:11.202Z,59.75
2023-03-28T00:32:44.021Z,59.45
2023-03-28T00:35:18.526Z,59.33
2023-03-28T00:37:53.876Z,59.62
2023-03-28T00:40:27.567Z,59.87
2023-03-28T00:43:00.634Z,59.86
2023-03-28T00:45:33.959Z,59.62
2023-03-28T00:48:14.849Z,59.83
2023-03-28T00:50:51.419Z,59.90
2023-03-28T00:53:26.742Z,59.84
2023-03-28T00:56:05.399Z,59.71
2023-03-28T00:58:43.660Z,59.83
2023-03-28T01:01:19.723Z,59.44
2023-03-28T01:04:02.328Z,59.72
2023-03-28T01:06:45.378Z,59.68
2023-03-28T01:09:24.142Z,59.81
2023-03-28T01:12:00.325Z,59.81
2023-03-28T01:14:33.915Z,59.72
2023-03-28T01:17:10.930Z,59.82
2023-03-28T01:19:59.769Z,59.95
2023-03-28T01:23:35.328Z,59.70
2023-03-28T01:26:42.231Z,59.73
2023-03-28T01:30:03.737Z,59.68
2023-03-28T01:33:29.294Z,59.82
2023-03-28T01:36:54.772Z,59.58
2023-03-28T01:39:41.836Z,60.12
2023-03-28T01:42:25.156Z,59.97
2023-03-28T01:45:11.594Z,60.12
2023-03-28T01:47:51.133Z,59.97
2023-03-28T01:50:31.352Z,60.31
2023-03-28T01:53:13.206Z,60.15
2023-03-28T01:55:54.136Z,60.18
2023-03-28T01:58:36.904Z,60.18
2023-03-28T02:01:20.312Z,60.22
2023-03-28T02:03:59.889Z,60.07
2023-03-28T02:06:46.989Z,59.89
2023-03-28T02:09:28.199Z,59.99
2023-03-28T02:12:16.075Z,60.03
2023-03-28T02:15:06.926Z,59.79
2023-03-28T02:18:21.791Z,59.92
2023-03-28T02:21:07.686Z,59.95
2023-03-28T02:24:19.075Z,59.86
2023-03-28T02:27:11.934Z,60.00
2023-03-28T02:29:56.914Z,59.86
2023-03-28T02:32:44.097Z,60.11
2023-03-28T02:35:18.679Z,60.02
2023-03-28T02:38:02.453Z,60.11
2023-03-28T02:40:51.336Z,60.00
2023-03-28T02:43:56.473Z,60.02
2023-03-28T02:46:41.945Z,60.22
2023-03-28T02:49:35.089Z,60.06
2023-03-28T02:52:24.170Z,59.87
2023-03-28T02:55:03.246Z,60.02
2023-03-28T02:58:01.452Z,60.10
2023-03-28T03:00:39.759Z,60.02
2023-03-28T03:03:14.112Z,59.97
2023-03-28T03:05:47.340Z,59.98
2023-03-28T03:08:20.340Z,59.95
2023-03-28T03:10:53.429Z,59.98
2023-03-28T03:13:26.686Z,60.24
2023-03-28T03:16:01.340Z,60.16
2023-03-28T03:18:35.013Z,60.09
2023-03-28T03:21:08.913Z,60.05
2023-03-28T03:23:42.982Z,60.04
2023-03-28T03:26:16.226Z,59.99
2023-03-28T03:29:00.765Z,59.86
2023-03-28T03:31:35.713Z,59.99
2023-03-28T03:34:24.329Z,59.86
2023-03-28T03:37:02.462Z,59.86
2023-03-28T03:39:36.075Z,59.77
2023-03-28T03:42:09.205Z,59.70
2023-03-28T03:44:42.990Z,59.51
2023-03-28T03:47:19.671Z,59.46
2023-03-28T03:49:55.517Z,59.61
2023-03-28T03:52:28.581Z,59.45
2023-03-28T03:55:01.763Z,59.48
2023-03-28T03:57:34.939Z,59.43
2023-03-28T04:00:12.314Z,59.82
2023-03-28T04:02:55.535Z,60.10
2023-03-28T04:05:30.964Z,60.32
2023-03-28T04:08:09.090Z,60.67
2023-03-28T04:10:47.309Z,60.73
2023-03-28T04:13:20.546Z,60.98
2023-03-28T04:15:59.394Z,61.13
2023-03-28T04:18:50.838Z,61.43
2023-03-28T04:21:29.934Z,61.72
2023-03-28T04:24:04.730Z,61.60
2023-03-28T04:26:45.966Z,61.69
2023-03-28T04:29:19.375Z,61.88
2023-03-28T04:32:12.923Z,61.82
2023-03-28T04:35:06.303Z,62.10
2023-03-28T04:37:39.627Z,62.14
2023-03-28T04:40:17.779Z,62.29
2023-03-28T04:42:57.271Z,62.41
2023-03-28T04:45:35.550Z,62.51
2023-03-28T04:48:19.057Z,62.49
2023-03-28T04:50:54.116Z,62.81
2023-03-28T04:53:27.261Z,62.66
2023-03-28T04:56:26.360Z,62.80
2023-03-28T04:59:03.521Z,63.03
2023-03-28T05:01:36.787Z,63.25
2023-03-28T05:04:36.091Z,63.29
2023-03-28T05:07:12.734Z,63.53
2023-03-28T05:09:46.040Z,63.59
2023-03-28T05:12:19.226Z,63.70
2023-03-28T05:15:11.525Z,63.80
2023-03-28T05:18:07.021Z,63.60
2023-03-28T05:20:44.873Z,63.80
2023-03-28T05:23:19.298Z,63.86
2023-03-28T05:25:58.889Z,63.94
2023-03-28T05:28:34.937Z,63.65
2023-03-28T05:31:10.568Z,63.83
2023-03-28T05:33:43.842Z,63.84
2023-03-28T05:36:27.245Z,63.74
2023-03-28T05:39:04.885Z,63.68
2023-03-28T05:41:38.678Z,63.43
2023-03-28T05:44:11.710Z,63.20
2023-03-28T05:47:04.680Z,62.81
2023-03-28T05:49:37.822Z,62.73
2023-03-28T05:52:10.812Z,62.78
2023-03-28T05:54:50.612Z,62.65
2023-03-28T05:57:26.667Z,62.59
2023-03-28T05:59:59.781Z,62.48
2023-03-28T06:02:33.618Z,62.70
2023-03-28T06:05:07.841Z,62.48
2023-03-28T06:07:42.874Z,62.15
2023-03-28T06:10:21.139Z,62.15
2023-03-28T06:13:12.821Z,62.06
2023-03-28T06:15:46.071Z,62.37
2023-03-28T06:18:19.096Z,62.39
2023-03-28T06:20:55.007Z,62.63
2023-03-28T06:23:28.202Z,62.56
2023-03-28T06:26:03.438Z,62.58
2023-03-28T06:28:43.536Z,62.53
2023-03-28T06:31:27.927Z,62.52
2023-03-28T06:34:01.003Z,62.44
2023-03-28T06:36:34.141Z,62.33
2023-03-28T06:39:07.308Z,62.36
2023-03-28T06:41:42.184Z,62.46
2023-03-28T06:44:15.906Z,62.58
2023-03-28T06:46:54.492Z,62.23
2023-03-28T06:49:27.631Z,62.13
2023-03-28T06:52:25.567Z,62.28
2023-03-28T06:55:00.433Z,62.31
2023-03-28T06:57:34.941Z,62.37
2023-03-28T07:00:27.122Z,62.19
2023-03-28T07:03:26.854Z,62.30
2023-03-28T07:06:00.265Z,62.38
2023-03-28T07:08:33.535Z,62.31
2023-03-28T07:11:07.441Z,62.39
2023-03-28T07:13:41.729Z,61.89
2023-03-28T07:16:18.005Z,62.03
2023-03-28T07:18:51.248Z,61.92
2023-03-28T07:21:28.148Z,61.74
2023-03-28T07:24:03.929Z,61.85
2023-03-28T07:27:11.889Z,61.88
2023-03-28T07:29:49.972Z,61.91
2023-03-28T07:32:23.453Z,61.80
2023-03-28T07:34:56.594Z,61.89
2023-03-28T07:37:32.533Z,61.93
2023-03-28T07:40:31.548Z,61.80
2023-03-28T07:43:04.773Z,61.82
2023-03-28T07:45:39.367Z,61.91
2023-03-28T07:48:12.492Z,61.86
2023-03-28T07:50:45.599Z,61.75
2023-03-28T07:53:22.043Z,61.57
2023-03-28T07:55:56.206Z,61.15
2023-03-28T07:58:36.313Z,60.88
2023-03-28T08:01:18.738Z,60.75
2023-03-28T08:03:55.594Z,60.44
2023-03-28T08:06:34.261Z,60.33
2023-03-28T08:09:09.757Z,60.12
2023-03-28T08:11:50.289Z,59.77
2023-03-28T08:14:23.288Z,59.30
2023-03-28T08:16:57.725Z,59.01
2023-03-28T08:19:30.688Z,58.73
2023-03-28T08:22:24.780Z,58.67
2023-03-28T08:25:18.246Z,58.90
2023-03-28T08:27:51.840Z,59.15
2023-03-28T08:30:25.326Z,59.15
2023-03-28T08:33:05.434Z,59.36
2023-03-28T08:35:39.427Z,59.53
2023-03-28T08:38:23.637Z,59.49
2023-03-28T08:41:05.485Z,59.89
2023-03-28T08:44:09.861Z,60.01
2023-03-28T08:46:45.906Z,59.97
2023-03-28T08:49:20.691Z,59.63
2023-03-28T08:52:00.844Z,59.39
2023-03-28T08:54:42.116Z,59.38
2023-03-28T08:57:19.981Z,58.92
2023-03-28T09:00:00.960Z,55.07
2023-03-28T09:02:34.393Z,50.59
2023-03-28T09:05:23.571Z,48.20
2023-03-28T09:08:19.708Z,45.35
2023-03-28T09:11:01.829Z,44.39
2023-03-28T09:13:46.976Z,44.36
2023-03-28T09:16:39.807Z,44.96
2023-03-28T09:19:37.006Z,44.75
2023-03-28T09:23:17.667Z,45.73
2023-03-28T09:26:17.095Z,45.96
2023-03-28T09:29:10.176Z,45.43
2023-03-28T09:31:48.051Z,45.72
2023-03-28T09:34:27.538Z,45.93
2023-03-28T09:37:17.102Z,45.99
2023-03-28T09:39:56.120Z,46.61
2023-03-28T09:42:44.868Z,46.03
2023-03-28T09:45:44.612Z,45.53
2023-03-28T09:48:39.117Z,45.29
2023-03-28T09:51:18.533Z,44.32
2023-03-28T09:53:52.634Z,43.68
2023-03-28T09:56:30.142Z,42.85
2023-03-28T09:59:31.750Z,42.89
2023-03-28T10:02:27.870Z,41.72
2023-03-28T10:05:04.100Z,39.83
2023-03-28T10:07:59.567Z,36.86
2023-03-28T10:10:43.164Z,33.92
2023-03-28T10:13:23.535Z,31.42
2023-03-28T10:15:59.601Z,31.63
2023-03-28T10:18:51.267Z,32.04
2023-03-28T10:21:34.684Z,32.45
2023-03-28T10:24:22.955Z,29.87
2023-03-28T10:27:09.582Z,29.74
2023-03-28T10:29:44.861Z,29.83
2023-03-28T10:32:27.143Z,30.66
2023-03-28T10:35:26.917Z,31.67
2023-03-28T10:38:22.434Z,33.42
2023-03-28T10:41:25.219Z,34.35
2023-03-28T10:44:27.262Z,34.99
2023-03-28T10:47:19.709Z,33.85
2023-03-28T10:50:01.984Z,33.99
2023-03-28T10:52:44.312Z,33.55
2023-03-28T10:55:27.373Z,32.72
2023-03-28T10:58:20.495Z,31.75
2023-03-28T11:01:06.400Z,30.25
2023-03-28T11:04:12.355Z,28.32
2023-03-28T11:06:53.025Z,27.04
2023-03-28T11:09:43.309Z,26.45
2023-03-28T11:14:21.746Z,26.20
2023-03-28T11:15:56.056Z,26.90
2023-03-28T11:18:50.036Z,27.43
2023-03-28T11:21:36.269Z,27.98
2023-03-28T11:24:18.718Z,29.04
2023-03-28T11:27:25.548Z,30.77
2023-03-28T11:30:19.805Z,30.96
2023-03-28T11:33:13.172Z,29.82
2023-03-28T11:35:51.512Z,28.15
2023-03-28T11:38:31.008Z,26.54
2023-03-28T11:41:08.933Z,24.94
2023-03-28T11:44:20.521Z,24.82
2023-03-28T11:47:12.056Z,25.47
2023-03-28T11:49:53.297Z,26.12
2023-03-28T11:52:52.144Z,27.35
2023-03-28T11:55:50.718Z,27.83
2023-03-28T11:58:51.451Z,29.06
2023-03-28T12:01:28.541Z,30.05
2023-03-28T12:04:07.861Z,30.94
2023-03-28T12:06:59.573Z,32.09
2023-03-28T12:10:01.358Z,32.77
2023-03-28T12:12:42.802Z,33.02
2023-03-28T12:15:19.527Z,32.53
2023-03-28T12:18:03.753Z,32.65
2023-03-28T12:20:40.821Z,32.97
2023-03-28T12:23:37.794Z,32.92
2023-03-28T12:27:00.676Z,32.21
2023-03-28T12:29:44.849Z,31.38
2023-03-28T12:32:34.460Z,29.55
2023-03-28T12:35:18.106Z,28.78
2023-03-28T12:38:23.201Z,28.68
2023-03-28T12:41:07.524Z,28.95
2023-03-28T12:43:48.273Z,28.59
2023-03-28T12:46:37.143Z,29.29
2023-03-28T12:49:15.973Z,30.23
2023-03-28T12:51:53.010Z,30.71
2023-03-28T12:54:30.055Z,31.03
2023-03-28T12:57:23.685Z,31.16
2023-03-28T13:00:23.114Z,31.53
2023-03-28T13:03:34.076Z,31.79
2023-03-28T13:06:17.332Z,31.88
2023-03-28T13:09:08.706Z,32.16
2023-03-28T13:11:50.693Z,32.36
2023-03-28T13:14:39.671Z,32.30
2023-03-28T13:17:21.961Z,32.76
2023-03-28T13:20:08.799Z,33.03
2023-03-28T13:22:53.671Z,33.45
2023-03-28T13:25:32.176Z,33.82
2023-03-28T13:28:29.103Z,34.15
2023-03-28T13:31:21.597Z,34.96
2023-03-28T13:33:59.919Z,35.36
2023-03-28T13:36:37.990Z,35.35
2023-03-28T13:39:22.784Z,35.01
2023-03-28T13:42:01.391Z,34.75
2023-03-28T13:44:43.896Z,35.17
2023-03-28T13:47:28.640Z,35.45
2023-03-28T13:50:07.981Z,35.65
2023-03-28T13:52:42.792Z,36.03
2023-03-28T13:55:22.591Z,36.42
2023-03-28T13:57:55.972Z,36.75
2023-03-28T14:00:29.826Z,37.33
2023-03-28T14:03:03.981Z,36.96
2023-03-28T14:05:44.684Z,37.33
2023-03-28T14:08:26.445Z,37.54
2023-03-28T14:11:00.878Z,37.49
2023-03-28T14:13:34.306Z,37.32
2023-03-28T14:16:12.906Z,37.32
2023-03-28T14:18:49.116Z,37.05
2023-03-28T14:21:25.075Z,36.97
2023-03-28T14:24:02.782Z,36.69
2023-03-28T14:26:38.169Z,36.87
2023-03-28T14:29:13.582Z,37.12
2023-03-28T14:31:51.646Z,37.46
2023-03-28T14:34:38.971Z,37.77
2023-03-28T14:37:18.791Z,38.13
2023-03-28T14:39:54.781Z,38.04
2023-03-28T14:42:32.189Z,38.19
2023-03-28T14:45:05.906Z,38.43
2023-03-28T14:47:42.419Z,38.15
2023-03-28T14:50:17.904Z,38.15
2023-03-28T14:52:51.175Z,38.01
2023-03-28T14:55:27.339Z,38.35
2023-03-28T14:58:06.031Z,38.42
2023-03-28T15:00:42.608Z,39.86
2023-03-28T15:03:17.784Z,41.12
2023-03-28T15:05:54.602Z,41.94
2023-03-28T15:08:31.659Z,42.35
2023-03-28T15:11:12.464Z,43.31
2023-03-28T15:13:50.478Z,43.75
2023-03-28T15:16:26.822Z,43.32
2023-03-28T15:19:06.998Z,43.41
2023-03-28T15:21:42.627Z,43.24
2023-03-28T15:24:19.763Z,43.11
2023-03-28T15:26:57.249Z,43.20
2023-03-28T15:29:34.585Z,42.97
2023-03-28T15:32:14.635Z,43.04
2023-03-28T15:34:49.712Z,43.02
2023-03-28T15:37:26.346Z,43.19
2023-03-28T15:40:22.726Z,43.13
2023-03-28T15:42:57.461Z,42.72
2023-03-28T15:45:45.598Z,42.91
2023-03-28T15:48:20.386Z,43.20
2023-03-28T15:50:56.145Z,43.26
2023-03-28T15:53:30.459Z,43.49
2023-03-28T15:56:09.873Z,43.44
2023-03-28T15:58:46.672Z,43.52
2023-03-28T16:01:23.726Z,43.59
2023-03-28T16:04:29.916Z,43.38
2023-03-28T16:07:12.426Z,43.67
2023-03-28T16:09:46.615Z,43.70
2023-03-28T16:12:20.720Z,44.01
2023-03-28T16:15:15.822Z,44.03
2023-03-28T16:18:03.949Z,44.35
2023-03-28T16:20:51.474Z,44.94
2023-03-28T16:23:24.506Z,44.93
2023-03-28T16:25:57.563Z,45.08
2023-03-28T16:28:30.567Z,45.17
2023-03-28T16:31:05.496Z,45.43
2023-03-28T16:33:38.590Z,45.61
2023-03-28T16:36:13.335Z,45.94
2023-03-28T16:38:47.419Z,46.05
2023-03-28T16:41:20.849Z,46.34
2023-03-28T16:43:54.002Z,46.42
2023-03-28T16:46:28.786Z,46.06
2023-03-28T16:49:01.912Z,46.05
2023-03-28T16:51:37.904Z,45.84
2023-03-28T16:54:14.096Z,45.60
2023-03-28T16:56:47.748Z,45.37
2023-03-28T16:59:22.063Z,45.60
2023-03-28T17:01:57.209Z,45.45
2023-03-28T17:04:30.581Z,45.38
2023-03-28T17:07:03.621Z,45.45
2023-03-28T17:09:36.773Z,45.36
2023-03-28T17:12:12.651Z,45.62
2023-03-28T17:14:46.257Z,45.77
2023-03-28T17:17:27.450Z,45.71
2023-03-28T17:20:01.163Z,45.99
2023-03-28T17:22:34.203Z,46.25
2023-03-28T17:25:08.860Z,46.45
2023-03-28T17:27:41.838Z,46.42
2023-03-28T17:30:16.878Z,46.46
2023-03-28T17:32:57.145Z,46.80
2023-03-28T17:35:30.254Z,46.56
2023-03-28T17:38:03.234Z,46.89
2023-03-28T17:40:37.265Z,46.90
2023-03-28T17:43:11.620Z,46.28
2023-03-28T17:45:44.971Z,46.51
2023-03-28T17:48:19.528Z,46.63
2023-03-28T17:50:57.627Z,46.96
2023-03-28T17:53:30.638Z,46.94
2023-03-28T17:56:03.911Z,47.16
2023-03-28T17:58:37.600Z,47.30
2023-03-28T18:01:12.514Z,47.53
2023-03-28T18:03:47.380Z,47.53
2023-03-28T18:06:43.653Z,47.62
2023-03-28T18:09:16.706Z,47.68
2023-03-28T18:11:49.731Z,47.66
2023-03-28T18:14:22.750Z,47.69
2023-03-28T18:16:56.413Z,47.68
2023-03-28T18:19:33.821Z,48.01
2023-03-28T18:22:06.897Z,47.79
2023-03-28T18:24:39.926Z,47.86
2023-03-28T18:27:12.977Z,47.90
2023-03-28T18:29:47.420Z,47.91
2023-03-28T18:32:26.215Z,48.14
2023-03-28T18:35:01.285Z,48.10
2023-03-28T18:37:34.461Z,47.91
2023-03-28T18:40:11.052Z,47.94
2023-03-28T18:42:44.189Z,48.01
2023-03-28T18:45:18.039Z,47.91
2023-03-28T18:47:51.694Z,47.87
2023-03-28T18:50:27.330Z,47.86
2023-03-28T18:53:00.758Z,47.47
2023-03-28T18:55:36.785Z,47.43
2023-03-28T18:58:11.497Z,47.28
2023-03-28T19:00:44.666Z,47.06
2023-03-28T19:03:17.839Z,47.11
2023-03-28T19:05:57.572Z,46.99
2023-03-28T19:08:31.077Z,46.72
2023-03-28T19:11:08.671Z,46.70
2023-03-28T19:13:42.604Z,46.57
2023-03-28T19:16:16.350Z,46.47
2023-03-28T19:18:49.509Z,46.46
2023-03-28T19:21:23.955Z,46.47
2023-03-28T19:23:58.563Z,46.28
2023-03-28T19:26:31.618Z,46.25
2023-03-28T19:29:04.647Z,46.13
2023-03-28T19:31:38.863Z,46.07
2023-03-28T19:34:17.063Z,45.98
2023-03-28T19:36:53.201Z,46.02
2023-03-28T19:39:26.258Z,45.84
2023-03-28T19:42:00.055Z,45.89
2023-03-28T19:44:33.513Z,45.78
2023-03-28T19:47:07.019Z,45.88
2023-03-28T19:49:40.494Z,45.64
2023-03-28T19:52:15.137Z,45.76
2023-03-28T19:54:48.231Z,45.67
2023-03-28T19:57:21.296Z,45.84
2023-03-28T19:59:54.445Z,45.68
2023-03-28T20:02:27.779Z,45.74
2023-03-28T20:05:01.083Z,45.63
2023-03-28T20:07:35.524Z,45.73
2023-03-28T20:10:11.873Z,45.68
2023-03-28T20:12:46.914Z,45.74
2023-03-28T20:15:23.596Z,45.73
2023-03-28T20:17:57.237Z,46.13
2023-03-28T20:20:32.796Z,46.00
2023-03-28T20:23:11.660Z,46.14
2023-03-28T20:25:44.874Z,46.50
2023-03-28T20:28:18.201Z,46.41
2023-03-28T20:30:54.279Z,46.82
2023-03-28T20:33:29.392Z,46.86
2023-03-28T20:36:03.014Z,46.90
2023-03-28T20:38:37.755Z,47.09
2023-03-28T20:41:12.198Z,47.00
2023-03-28T20:43:47.730Z,47.29
2023-03-28T20:46:22.628Z,47.32
2023-03-28T20:48:59.242Z,47.66
2023-03-28T20:51:32.714Z,47.44
2023-03-28T20:54:07.321Z,47.67
2023-03-28T20:56:41.850Z,47.78
2023-03-28T20:59:14.965Z,47.69
2023-03-28T21:01:48.079Z,47.82
2023-03-28T21:04:27.593Z,47.83
2023-03-28T21:07:01.902Z,47.91
2023-03-28T21:09:36.638Z,48.12
2023-03-28T21:12:10.005Z,48.13
2023-03-28T21:14:46.131Z,48.40
2023-03-28T21:17:25.497Z,48.36
2023-03-28T21:20:01.435Z,48.51
2023-03-28T21:22:43.681Z,48.45
2023-03-28T21:25:21.090Z,48.54
2023-03-28T21:27:58.078Z,48.65
2023-03-28T21:30:31.137Z,48.82
2023-03-28T21:33:04.181Z,48.88
2023-03-28T21:35:39.778Z,48.86
2023-03-28T21:38:13.218Z,48.91
2023-03-28T21:40:48.370Z,48.81
2023-03-28T21:43:21.627Z,48.90
2023-03-28T21:45:54.665Z,49.10
2023-03-28T21:48:28.249Z,49.20
2023-03-28T21:51:02.458Z,49.22
2023-03-28T21:53:39.605Z,49.23
2023-03-28T21:56:14.704Z,49.53
2023-03-28T21:58:50.923Z,49.62
2023-03-28T22:01:24.173Z,49.65
2023-03-28T22:03:57.666Z,49.66
2023-03-28T22:06:30.766Z,49.50
2023-03-28T22:09:05.049Z,49.92
2023-03-28T22:11:45.893Z,49.78
2023-03-28T22:14:19.097Z,50.00
2023-03-28T22:16:52.241Z,50.04
2023-03-28T22:19:30.116Z,50.09
2023-03-28T22:22:03.653Z,50.12
2023-03-28T22:24:37.408Z,50.16
2023-03-28T22:27:12.422Z,50.41
2023-03-28T22:29:48.507Z,50.45
2023-03-28T22:32:21.665Z,50.35
2023-03-28T22:34:54.852Z,50.14
2023-03-28T22:37:28.333Z,50.09
2023-03-28T22:40:02.073Z,50.23
2023-03-28T22:42:37.106Z,50.51
2023-03-28T22:45:11.024Z,50.51
2023-03-28T22:47:44.311Z,50.42
2023-03-28T22:50:22.182Z,50.68
2023-03-28T22:52:58.049Z,50.53
2023-03-28T22:55:31.544Z,50.64
2023-03-28T22:58:09.014Z,50.86
2023-03-28T23:00:43.748Z,50.93
2023-03-28T23:03:17.207Z,50.95
2023-03-28T23:05:51.559Z,50.88
2023-03-28T23:08:27.364Z,51.09
2023-03-28T23:11:00.809Z,51.18
2023-03-28T23:13:35.378Z,51.18
2023-03-28T23:16:09.303Z,51.24
2023-03-28T23:18:43.218Z,50.78
2023-03-28T23:21:16.340Z,50.76
2023-03-28T23:23:49.280Z,51.05
2023-03-28T23:26:22.367Z,51.23
2023-03-28T23:28:56.830Z,51.29
2023-03-28T23:31:29.810Z,51.26
2023-03-28T23:34:02.831Z,51.49
2023-03-28T23:36:35.907Z,51.65
2023-03-28T23:39:08.944Z,51.60
2023-03-28T23:41:42.246Z,51.79
2023-03-28T23:44:16.715Z,51.94
2023-03-28T23:46:50.116Z,51.97
2023-03-28T23:49:23.278Z,51.96
2023-03-28T23:51:56.529Z,52.05
2023-03-28T23:54:30.007Z,52.22
2023-03-28T23:57:03.671Z,52.19
2023-03-28T23:59:38.112Z,52.24
